Time;durP1;ratioP1;P1;durP2;ratioP2;P2;SDS_P1;SDS_P2;PMS_P1;PMS_P2;Temp;Humidity;BMP_temperature;BMP_pressure;BME280_temperature;BME280_humidity;BME280_pressure;Samples;Min_cycle;Max_cycle;Signal;HPM_P1;HPM_P2
2023/09/19 00:01:40;;;;;;;3.00;1.70;;;;;;;;;;5074423;28;20443;-61
2023/09/19 00:04:09;;;;;;;2.67;1.70;;;;;;;;;;5074221;28;20451;-62
2023/09/19 00:06:36;;;;;;;1.90;1.80;;;;;;;;;;5074426;28;20542;-61
2023/09/19 00:09:03;;;;;;;2.47;2.03;;;;;;;;;;5074294;28;20481;-61
2023/09/19 00:11:30;;;;;;;4.43;1.80;;;;;;;;;;5074213;28;20538;-61
2023/09/19 00:13:59;;;;;;;3.33;1.50;;;;;;;;;;5074100;28;20526;-61
2023/09/19 00:16:26;;;;;;;3.90;1.60;;;;;;;;;;5074143;28;20978;-62
2023/09/19 00:18:53;;;;;;;2.00;1.50;;;;;;;;;;5073850;28;20483;-61
2023/09/19 00:21:21;;;;;;;2.30;1.47;;;;;;;;;;5074358;28;20450;-62
2023/09/19 00:23:49;;;;;;;3.33;1.50;;;;;;;;;;5074028;28;20444;-62
2023/09/19 00:26:17;;;;;;;2.30;1.43;;;;;;;;;;5073928;28;20447;-62
2023/09/19 00:28:44;;;;;;;1.87;1.43;;;;;;;;;;5073855;28;20443;-62
2023/09/19 00:31:11;;;;;;;2.13;1.90;;;;;;;;;;5073616;28;20776;-61
2023/09/19 00:33:38;;;;;;;4.63;2.13;;;;;;;;;;5074007;28;20926;-62
2023/09/19 00:36:05;;;;;;;3.00;1.80;;;;;;;;;;5073737;28;20573;-61
2023/09/19 00:38:34;;;;;;;2.13;1.63;;;;;;;;;;5073683;28;20459;-62
2023/09/19 00:41:00;;;;;;;2.83;1.80;;;;;;;;;;5073615;28;20542;-62
2023/09/19 00:43:29;;;;;;;3.70;2.07;;;;;;;;;;5073515;28;20784;-62
2023/09/19 00:45:57;;;;;;;5.80;1.80;;;;;;;;;;5073335;28;20965;-62
2023/09/19 00:48:27;;;;;;;3.00;1.97;;;;;;;;;;5073397;28;20444;-61
2023/09/19 00:50:54;;;;;;;3.13;1.77;;;;;;;;;;5073639;28;20535;-61
2023/09/19 00:53:22;;;;;;;4.70;1.60;;;;;;;;;;5073474;28;20454;-61
2023/09/19 00:55:51;;;;;;;2.00;1.67;;;;;;;;;;5073387;28;20467;-61
2023/09/19 00:58:18;;;;;;;3.20;1.60;;;;;;;;;;5073484;28;20439;-62
2023/09/19 01:00:45;;;;;;;2.43;1.70;;;;;;;;;;5072592;28;21007;-61
2023/09/19 01:03:13;;;;;;;2.13;1.60;;;;;;;;;;5073596;28;20539;-62
2023/09/19 01:05:41;;;;;;;1.90;1.60;;;;;;;;;;5073304;28;20470;-61
2023/09/19 01:08:08;;;;;;;1.40;1.30;;;;;;;;;;5073343;28;20960;-61
2023/09/19 01:10:35;;;;;;;2.90;1.67;;;;;;;;;;5073137;28;20486;-62
2023/09/19 01:13:08;;;;;;;2.60;1.87;;;;;;;;;;5073269;28;20451;-61
2023/09/19 01:15:42;;;;;;;1.70;1.60;;;;;;;;;;5073236;28;20841;-61
2023/09/19 01:18:16;;;;;;;3.33;2.03;;;;;;;;;;5073165;28;20447;-62
2023/09/19 01:20:48;;;;;;;1.97;1.80;;;;;;;;;;5073078;28;20538;-61
2023/09/19 01:23:19;;;;;;;2.03;1.93;;;;;;;;;;5072950;28;20469;-62
2023/09/19 01:25:57;;;;;;;1.80;1.60;;;;;;;;;;5073246;28;20451;-62
2023/09/19 01:28:36;;;;;;;1.57;1.30;;;;;;;;;;5073148;28;20545;-61
2023/09/19 01:31:09;;;;;;;3.37;1.97;;;;;;;;;;5073052;28;20493;-61
2023/09/19 01:33:51;;;;;;;2.10;1.90;;;;;;;;;;5072920;28;20557;-61
2023/09/19 01:36:18;;;;;;;2.40;1.77;;;;;;;;;;5072702;28;20478;-61
2023/09/19 01:38:45;;;;;;;1.87;1.77;;;;;;;;;;5072784;28;20531;-61
2023/09/19 01:41:13;;;;;;;2.70;1.70;;;;;;;;;;5072918;28;20479;-62
2023/09/19 01:43:43;;;;;;;1.83;1.60;;;;;;;;;;5072817;28;20538;-61
2023/09/19 01:46:16;;;;;;;2.37;1.87;;;;;;;;;;5072677;28;20447;-61
2023/09/19 01:48:47;;;;;;;2.80;2.33;;;;;;;;;;5072936;28;20538;-61
2023/09/19 01:51:16;;;;;;;3.10;2.20;;;;;;;;;;5072987;28;20447;-61
2023/09/19 01:53:46;;;;;;;2.70;1.83;;;;;;;;;;5072750;28;20446;-61
2023/09/19 01:56:17;;;;;;;1.70;1.60;;;;;;;;;;5072761;28;20905;-61
2023/09/19 01:58:48;;;;;;;1.47;1.37;;;;;;;;;;5072623;28;20538;-61
2023/09/19 02:01:19;;;;;;;1.93;1.30;;;;;;;;;;5072550;28;20467;-61
2023/09/19 02:03:47;;;;;;;1.90;1.50;;;;;;;;;;5072738;28;20539;-61
2023/09/19 02:06:15;;;;;;;2.23;1.50;;;;;;;;;;5072633;28;20475;-61
2023/09/19 02:08:42;;;;;;;4.33;1.60;;;;;;;;;;5072596;28;20493;-62
2023/09/19 02:11:10;;;;;;;1.53;1.40;;;;;;;;;;5072460;28;20542;-62
2023/09/19 02:13:37;;;;;;;4.03;1.87;;;;;;;;;;5075161;28;20444;-62
2023/09/19 02:16:07;;;;;;;2.37;1.63;;;;;;;;;;5076463;28;20524;-62
2023/09/19 02:18:35;;;;;;;4.40;1.77;;;;;;;;;;5076401;28;20477;-62
2023/09/19 02:21:03;;;;;;;4.10;1.50;;;;;;;;;;5076423;28;20454;-61
2023/09/19 02:23:30;;;;;;;1.90;1.43;;;;;;;;;;5076229;28;20449;-61
2023/09/19 02:26:00;;;;;;;1.70;1.60;;;;;;;;;;5076071;28;20875;-61
2023/09/19 02:28:29;;;;;;;2.27;1.70;;;;;;;;;;5076289;28;20577;-61
2023/09/19 02:30:56;;;;;;;2.43;1.60;;;;;;;;;;5076419;28;20456;-61
2023/09/19 02:33:23;;;;;;;2.87;1.80;;;;;;;;;;5076077;28;20443;-61
2023/09/19 02:35:57;;;;;;;2.80;2.00;;;;;;;;;;5075930;28;20558;-61
2023/09/19 02:38:24;;;;;;;1.80;1.50;;;;;;;;;;5076125;28;20447;-62
2023/09/19 02:40:51;;;;;;;2.17;1.43;;;;;;;;;;5075822;28;20942;-62
2023/09/19 02:43:19;;;;;;;2.10;1.70;;;;;;;;;;5075804;28;20946;-61
2023/09/19 02:45:49;;;;;;;2.00;1.80;;;;;;;;;;5075861;28;20459;-61
2023/09/19 02:48:16;;;;;;;1.93;1.83;;;;;;;;;;5075719;28;21022;-62
2023/09/19 02:50:44;;;;;;;1.67;1.57;;;;;;;;;;5075669;28;20530;-62
2023/09/19 02:53:13;;;;;;;1.60;1.50;;;;;;;;;;5075801;28;20471;-61
2023/09/19 02:55:40;;;;;;;1.70;1.60;;;;;;;;;;5075583;28;20539;-61
2023/09/19 02:58:10;;;;;;;1.60;1.50;;;;;;;;;;5075707;28;20454;-61
2023/09/19 03:00:37;;;;;;;1.30;1.17;;;;;;;;;;5075507;28;20892;-62
2023/09/19 03:03:06;;;;;;;3.57;1.63;;;;;;;;;;5075503;28;20475;-62
2023/09/19 03:05:33;;;;;;;1.70;1.60;;;;;;;;;;5075887;28;20858;-62
2023/09/19 03:08:01;;;;;;;2.33;1.70;;;;;;;;;;5075475;28;20534;-62
2023/09/19 03:10:30;;;;;;;4.10;1.70;;;;;;;;;;5075382;28;20448;-61
2023/09/19 03:12:58;;;;;;;1.50;1.40;;;;;;;;;;5075369;28;20450;-61
2023/09/19 03:15:24;;;;;;;3.27;2.10;;;;;;;;;;5075241;28;20482;-61
2023/09/19 03:17:53;;;;;;;2.40;1.50;;;;;;;;;;5075073;28;20485;-62
2023/09/19 03:20:20;;;;;;;1.50;1.40;;;;;;;;;;5075352;28;20802;-61
2023/09/19 03:22:47;;;;;;;1.67;1.57;;;;;;;;;;5075515;28;20470;-61
2023/09/19 03:25:15;;;;;;;1.93;1.70;;;;;;;;;;5074826;28;20435;-61
2023/09/19 03:27:43;;;;;;;3.53;1.80;;;;;;;;;;5075075;28;20452;-61
2023/09/19 03:30:13;;;;;;;3.83;1.70;;;;;;;;;;5074995;28;20853;-61
2023/09/19 03:32:44;;;;;;;3.10;1.50;;;;;;;;;;5074918;28;20448;-61
2023/09/19 03:35:14;;;;;;;1.77;1.67;;;;;;;;;;5075216;28;20439;-61
2023/09/19 03:37:41;;;;;;;2.07;1.77;;;;;;;;;;5074913;28;20571;-61
2023/09/19 03:40:10;;;;;;;3.20;1.70;;;;;;;;;;5074822;28;20455;-61
2023/09/19 03:42:39;;;;;;;2.80;1.80;;;;;;;;;;5074753;28;20446;-61
2023/09/19 03:45:11;;;;;;;2.03;1.87;;;;;;;;;;5074644;28;20840;-61
2023/09/19 03:47:38;;;;;;;2.00;1.57;;;;;;;;;;5074823;28;20444;-61
2023/09/19 03:50:07;;;;;;;2.10;2.00;;;;;;;;;;5074816;28;20444;-62
2023/09/19 03:52:34;;;;;;;2.30;2.10;;;;;;;;;;5074534;28;20443;-61
2023/09/19 03:55:02;;;;;;;2.20;1.60;;;;;;;;;;5074500;28;20443;-62
2023/09/19 03:57:29;;;;;;;2.47;1.73;;;;;;;;;;5074538;28;20483;-61
2023/09/19 03:59:56;;;;;;;2.67;2.10;;;;;;;;;;5074488;28;20892;-61
2023/09/19 04:02:24;;;;;;;2.83;1.90;;;;;;;;;;5074490;28;20509;-61
2023/09/19 04:04:52;;;;;;;2.43;1.90;;;;;;;;;;5074572;28;20791;-61
2023/09/19 04:07:22;;;;;;;1.90;1.80;;;;;;;;;;5074264;28;20440;-62
2023/09/19 04:09:49;;;;;;;2.30;2.10;;;;;;;;;;5074201;28;20474;-62
2023/09/19 04:12:17;;;;;;;4.17;2.20;;;;;;;;;;5074018;28;20443;-61
2023/09/19 04:14:44;;;;;;;2.10;1.90;;;;;;;;;;5074202;28;20478;-61
2023/09/19 04:17:11;;;;;;;2.13;1.77;;;;;;;;;;5074110;28;20511;-61
2023/09/19 04:19:40;;;;;;;6.63;1.67;;;;;;;;;;5073859;28;20962;-61
2023/09/19 04:22:07;;;;;;;1.70;1.60;;;;;;;;;;5073861;28;20493;-61
2023/09/19 04:24:34;;;;;;;3.00;1.57;;;;;;;;;;5073807;28;20821;-61
2023/09/19 04:27:01;;;;;;;2.40;1.63;;;;;;;;;;5074181;28;20454;-61
2023/09/19 04:29:29;;;;;;;1.70;1.60;;;;;;;;;;5073876;28;20540;-61
2023/09/19 04:31:56;;;;;;;1.93;1.70;;;;;;;;;;5073570;28;20961;-61
2023/09/19 04:34:24;;;;;;;2.20;1.53;;;;;;;;;;5073688;28;20448;-61
2023/09/19 04:36:52;;;;;;;1.57;1.43;;;;;;;;;;5072869;28;20861;-61
2023/09/19 04:39:20;;;;;;;1.90;1.63;;;;;;;;;;5073363;28;20623;-61
2023/09/19 04:41:47;;;;;;;2.00;1.80;;;;;;;;;;5073602;28;20538;-61
2023/09/19 04:44:15;;;;;;;4.10;1.80;;;;;;;;;;5073584;28;20443;-62
2023/09/19 04:46:42;;;;;;;2.20;1.70;;;;;;;;;;5073423;28;20453;-62
2023/09/19 04:49:09;;;;;;;2.90;1.63;;;;;;;;;;5073386;28;20807;-62
2023/09/19 04:51:36;;;;;;;3.87;1.70;;;;;;;;;;5073151;28;20530;-62
2023/09/19 04:54:05;;;;;;;1.87;1.77;;;;;;;;;;5073349;28;20881;-62
2023/09/19 04:56:32;;;;;;;2.07;1.90;;;;;;;;;;5073115;28;21008;-62
2023/09/19 04:58:59;;;;;;;2.30;1.30;;;;;;;;;;5073348;28;20447;-61
2023/09/19 05:01:26;;;;;;;2.60;1.50;;;;;;;;;;5073072;28;20471;-61
2023/09/19 05:03:53;;;;;;;3.03;1.90;;;;;;;;;;5073108;28;20447;-61
2023/09/19 05:06:21;;;;;;;3.03;2.13;;;;;;;;;;5073056;28;20890;-61
2023/09/19 05:08:50;;;;;;;3.20;1.60;;;;;;;;;;5073334;28;20447;-61
2023/09/19 05:11:19;;;;;;;1.77;1.67;;;;;;;;;;5073199;28;20455;-61
2023/09/19 05:13:46;;;;;;;1.63;1.50;;;;;;;;;;5073086;28;20443;-61
2023/09/19 05:16:12;;;;;;;2.90;1.80;;;;;;;;;;5072939;28;20526;-61
2023/09/19 05:18:40;;;;;;;2.07;1.87;;;;;;;;;;5072773;28;20490;-62
2023/09/19 05:21:07;;;;;;;1.80;1.30;;;;;;;;;;5072908;28;20951;-61
2023/09/19 05:23:34;;;;;;;3.03;2.00;;;;;;;;;;5073037;28;20497;-61
2023/09/19 05:26:02;;;;;;;2.53;1.80;;;;;;;;;;5072925;28;20447;-61
2023/09/19 05:28:30;;;;;;;2.77;1.50;;;;;;;;;;5072988;28;20451;-61
2023/09/19 05:30:57;;;;;;;4.00;1.27;;;;;;;;;;5072824;28;20444;-61
2023/09/19 05:33:24;;;;;;;2.20;1.30;;;;;;;;;;5072580;28;20455;-61
2023/09/19 05:35:51;;;;;;;2.67;1.40;;;;;;;;;;5072556;28;20983;-62
2023/09/19 05:38:20;;;;;;;2.80;1.50;;;;;;;;;;5072584;28;21025;-61
2023/09/19 05:40:47;;;;;;;1.63;1.53;;;;;;;;;;5072809;28;20542;-61
2023/09/19 05:43:15;;;;;;;1.40;1.30;;;;;;;;;;5072662;28;20537;-61
2023/09/19 05:45:43;;;;;;;1.77;1.30;;;;;;;;;;5072672;28;20443;-61
2023/09/19 05:48:11;;;;;;;2.00;1.23;;;;;;;;;;5076419;28;20505;-62
2023/09/19 05:50:38;;;;;;;4.30;1.17;;;;;;;;;;5076981;28;20450;-61
2023/09/19 05:53:05;;;;;;;1.93;1.33;;;;;;;;;;5075806;28;20451;-61
2023/09/19 05:55:32;;;;;;;1.70;1.60;;;;;;;;;;5076403;28;20462;-61
2023/09/19 05:57:59;;;;;;;2.47;1.70;;;;;;;;;;5076536;28;20480;-61
2023/09/19 06:00:27;;;;;;;2.03;1.50;;;;;;;;;;5075905;28;20566;-61
2023/09/19 06:02:56;;;;;;;1.30;1.13;;;;;;;;;;5076669;28;20806;-61
2023/09/19 06:05:24;;;;;;;3.43;1.53;;;;;;;;;;5076465;28;20447;-61
2023/09/19 06:07:52;;;;;;;2.00;1.80;;;;;;;;;;5076602;28;20880;-61
2023/09/19 06:10:20;;;;;;;8.33;2.80;;;;;;;;;;5076421;28;20834;-61
2023/09/19 06:12:48;;;;;;;1.27;1.17;;;;;;;;;;5076260;28;20799;-61
2023/09/19 06:15:15;;;;;;;2.07;1.40;;;;;;;;;;5076227;28;20535;-61
2023/09/19 06:17:43;;;;;;;3.13;1.77;;;;;;;;;;5076062;28;20981;-61
2023/09/19 06:20:14;;;;;;;1.50;1.40;;;;;;;;;;5076326;28;20443;-61
2023/09/19 06:22:42;;;;;;;2.17;1.90;;;;;;;;;;5076274;28;20447;-61
2023/09/19 06:25:11;;;;;;;2.90;1.27;;;;;;;;;;5076132;28;20443;-61
2023/09/19 06:27:38;;;;;;;1.60;1.50;;;;;;;;;;5075885;28;20501;-61
2023/09/19 06:30:06;;;;;;;3.43;1.30;;;;;;;;;;5076135;28;20483;-61
2023/09/19 06:32:33;;;;;;;2.37;1.53;;;;;;;;;;5076146;28;20447;-61
2023/09/19 06:35:00;;;;;;;2.30;1.30;;;;;;;;;;5076002;28;20456;-61
2023/09/19 06:37:29;;;;;;;5.50;1.20;;;;;;;;;;5075829;28;21077;-61
2023/09/19 06:39:56;;;;;;;2.03;1.67;;;;;;;;;;5075639;28;20497;-61
2023/09/19 06:42:23;;;;;;;3.20;1.50;;;;;;;;;;5075774;28;20443;-61
2023/09/19 06:44:51;;;;;;;2.07;1.27;;;;;;;;;;5075557;28;20993;-61
2023/09/19 06:47:18;;;;;;;1.33;1.23;;;;;;;;;;5076040;28;20448;-61
2023/09/19 06:49:45;;;;;;;1.70;1.60;;;;;;;;;;5075650;28;20538;-61
2023/09/19 06:52:12;;;;;;;3.00;1.80;;;;;;;;;;5075671;28;20493;-61
2023/09/19 06:54:41;;;;;;;3.40;1.80;;;;;;;;;;5075444;28;20538;-61
2023/09/19 06:57:10;;;;;;;2.03;1.90;;;;;;;;;;5075421;28;20447;-63
2023/09/19 06:59:37;;;;;;;3.03;1.63;;;;;;;;;;5074277;28;20815;-60
2023/09/19 07:02:06;;;;;;;4.37;1.50;;;;;;;;;;5075309;28;20448;-61
2023/09/19 07:04:33;;;;;;;2.63;1.60;;;;;;;;;;5075312;28;20451;-63
2023/09/19 07:07:00;;;;;;;5.57;1.50;;;;;;;;;;5075214;28;20443;-65
2023/09/19 07:09:28;;;;;;;4.37;2.17;;;;;;;;;;5075486;28;20859;-64
2023/09/19 07:11:56;;;;;;;1.70;1.50;;;;;;;;;;5075397;28;20443;-66
2023/09/19 07:14:23;;;;;;;1.93;1.70;;;;;;;;;;5075284;28;20530;-63
2023/09/19 07:16:51;;;;;;;2.83;1.60;;;;;;;;;;5075151;28;20534;-62
2023/09/19 07:19:18;;;;;;;3.03;1.60;;;;;;;;;;5074954;28;20483;-65
2023/09/19 07:21:47;;;;;;;2.53;1.90;;;;;;;;;;5074931;28;20452;-66
2023/09/19 07:24:14;;;;;;;4.13;1.70;;;;;;;;;;5075046;28;20444;-65
2023/09/19 07:26:41;;;;;;;4.13;1.73;;;;;;;;;;5074967;28;20905;-68
2023/09/19 07:29:09;;;;;;;2.70;1.77;;;;;;;;;;5074873;28;20454;-62
2023/09/19 07:31:36;;;;;;;6.43;2.00;;;;;;;;;;5074828;28;20443;-61
2023/09/19 07:34:03;;;;;;;1.67;1.53;;;;;;;;;;5074832;28;20443;-69
2023/09/19 07:36:30;;;;;;;7.20;1.70;;;;;;;;;;5074792;28;20504;-62
2023/09/19 07:38:57;;;;;;;2.13;1.70;;;;;;;;;;5074605;28;20541;-63
2023/09/19 07:41:25;;;;;;;2.40;1.77;;;;;;;;;;5074747;28;20451;-64
2023/09/19 07:43:52;;;;;;;2.00;1.30;;;;;;;;;;5074669;28;20539;-63
2023/09/19 07:46:20;;;;;;;3.30;1.70;;;;;;;;;;5074411;28;20953;-68
2023/09/19 07:48:48;;;;;;;9.23;1.90;;;;;;;;;;5074420;28;20443;-67
2023/09/19 07:51:17;;;;;;;1.90;1.73;;;;;;;;;;5074617;28;20440;-66
2023/09/19 07:53:44;;;;;;;4.00;1.97;;;;;;;;;;5074533;28;20443;-60
2023/09/19 07:56:12;;;;;;;3.10;1.90;;;;;;;;;;5074478;28;20881;-60
2023/09/19 07:58:43;;;;;;;2.80;1.70;;;;;;;;;;5074531;28;20557;-68
2023/09/19 08:01:13;;;;;;;2.67;2.10;;;;;;;;;;5074070;28;20482;-61
2023/09/19 08:03:43;;;;;;;3.37;2.70;;;;;;;;;;5074497;28;20483;-61
2023/09/19 08:06:09;;;;;;;3.20;1.90;;;;;;;;;;5074331;28;20448;-70
2023/09/19 08:08:37;;;;;;;5.20;3.10;;;;;;;;;;5074187;28;20998;-65
2023/09/19 08:11:10;;;;;;;3.13;2.30;;;;;;;;;;5073028;28;20444;-65
2023/09/19 08:13:37;;;;;;;3.50;2.70;;;;;;;;;;5074213;28;20509;-71
2023/09/19 08:16:05;;;;;;;2.73;2.23;;;;;;;;;;5073835;28;20446;-64
2023/09/19 08:18:32;;;;;;;2.87;2.20;;;;;;;;;;5073831;28;20513;-60
2023/09/19 08:21:01;;;;;;;6.57;2.37;;;;;;;;;;5073991;28;20803;-63
2023/09/19 08:23:28;;;;;;;4.60;2.20;;;;;;;;;;5073855;28;20448;-65
2023/09/19 08:25:59;;;;;;;3.17;1.83;;;;;;;;;;5074013;28;20467;-61
2023/09/19 08:28:29;;;;;;;3.40;2.33;;;;;;;;;;5073742;28;20802;-61
2023/09/19 08:30:58;;;;;;;3.80;2.30;;;;;;;;;;5073788;28;20451;-61
2023/09/19 08:33:24;;;;;;;4.60;2.47;;;;;;;;;;5073773;28;20935;-64
2023/09/19 08:35:51;;;;;;;2.13;1.90;;;;;;;;;;5073528;28;20542;-63
2023/09/19 08:38:20;;;;;;;2.50;2.20;;;;;;;;;;5073555;28;20998;-62
2023/09/19 08:40:47;;;;;;;3.33;2.30;;;;;;;;;;5073381;28;20455;-67
2023/09/19 08:43:14;;;;;;;2.90;2.17;;;;;;;;;;5073821;28;20885;-63
2023/09/19 08:45:41;;;;;;;2.43;2.23;;;;;;;;;;5073579;28;20546;-63
2023/09/19 08:48:18;;;;;;;2.63;1.90;;;;;;;;;;5073450;28;20906;-65
2023/09/19 08:50:48;;;;;;;3.73;1.97;;;;;;;;;;5073272;28;20448;-66
2023/09/19 08:53:23;;;;;;;5.33;1.70;;;;;;;;;;5073208;28;20530;-63
2023/09/19 08:55:53;;;;;;;4.07;2.73;;;;;;;;;;5073425;28;20454;-66
2023/09/19 08:58:22;;;;;;;3.57;1.97;;;;;;;;;;5073555;28;20825;-56
2023/09/19 09:00:50;;;;;;;2.60;2.07;;;;;;;;;;5073036;28;20494;-64
2023/09/19 09:03:19;;;;;;;2.93;2.33;;;;;;;;;;5073101;28;20446;-64
2023/09/19 09:05:47;;;;;;;2.00;1.90;;;;;;;;;;5073017;28;20834;-65
2023/09/19 09:08:15;;;;;;;7.87;2.90;;;;;;;;;;5073252;28;20448;-65
2023/09/19 09:10:41;;;;;;;3.80;2.37;;;;;;;;;;5073146;28;20440;-59
2023/09/19 09:13:14;;;;;;;4.93;2.87;;;;;;;;;;5073067;28;20444;-61
2023/09/19 09:15:42;;;;;;;5.23;2.33;;;;;;;;;;5073053;28;20498;-62
2023/09/19 09:18:08;;;;;;;4.33;2.40;;;;;;;;;;5072850;28;20475;-62
2023/09/19 09:20:35;;;;;;;5.13;3.10;;;;;;;;;;5072894;28;20934;-60
2023/09/19 09:23:04;;;;;;;2.07;1.97;;;;;;;;;;5072636;28;20588;-60
2023/09/19 09:25:46;;;;;;;3.00;2.27;;;;;;;;;;5072996;28;20501;-62
2023/09/19 09:28:20;;;;;;;3.30;2.30;;;;;;;;;;5072722;28;20542;-61
2023/09/19 09:30:47;;;;;;;3.23;2.07;;;;;;;;;;5072600;28;20525;-65
2023/09/19 09:33:16;;;;;;;6.07;2.87;;;;;;;;;;5073089;28;20450;-61
2023/09/19 09:35:51;;;;;;;4.33;2.43;;;;;;;;;;5072867;28;20451;-67
2023/09/19 09:38:18;;;;;;;4.27;2.63;;;;;;;;;;5072742;28;20475;-67
2023/09/19 09:40:52;;;;;;;3.67;2.23;;;;;;;;;;5072780;28;20452;-63
2023/09/19 09:43:31;;;;;;;3.50;2.00;;;;;;;;;;5072676;28;20444;-64
2023/09/19 09:52:05;;;;;;;3.03;2.40;;;;;;;;;;5131335;27;20538;-63
2023/09/19 09:54:36;;;;;;;3.13;2.47;;;;;;;;;;5131073;28;20970;-62
2023/09/19 09:57:13;;;;;;;4.77;2.80;;;;;;;;;;5131267;28;20433;-62
2023/09/19 09:59:50;;;;;;;2.10;1.90;;;;;;;;;;5131085;27;20479;-64
2023/09/19 10:02:23;;;;;;;4.83;2.77;;;;;;;;;;5131097;28;20520;-61
2023/09/19 10:04:58;;;;;;;5.03;2.47;;;;;;;;;;5131272;28;20857;-61
2023/09/19 10:07:35;;;;;;;3.37;2.20;;;;;;;;;;5131346;28;20444;-62
2023/09/19 10:10:11;;;;;;;3.30;2.10;;;;;;;;;;5130774;28;20501;-69
2023/09/19 10:12:43;;;;;;;2.90;2.20;;;;;;;;;;5130801;27;20528;-68
2023/09/19 10:15:16;;;;;;;2.17;2.00;;;;;;;;;;5130936;28;20439;-62
2023/09/19 10:17:44;;;;;;;6.97;2.10;;;;;;;;;;5130719;28;20473;-61
2023/09/19 10:20:27;;;;;;;3.10;2.90;;;;;;;;;;5130767;28;20452;-64
2023/09/19 10:22:57;;;;;;;5.87;2.40;;;;;;;;;;5130627;28;20468;-61
2023/09/19 10:25:28;;;;;;;1.60;1.50;;;;;;;;;;5130723;28;20451;-65
2023/09/19 10:27:57;;;;;;;4.30;2.57;;;;;;;;;;5130691;27;20477;-65
2023/09/19 10:30:25;;;;;;;2.60;1.97;;;;;;;;;;5130555;28;20886;-66
2023/09/19 10:32:55;;;;;;;2.60;2.40;;;;;;;;;;5130446;28;20473;-67
2023/09/19 10:35:23;;;;;;;4.33;2.80;;;;;;;;;;5130335;27;21030;-65
2023/09/19 10:37:52;;;;;;;3.33;1.93;;;;;;;;;;5130509;28;20502;-64
2023/09/19 10:40:21;;;;;;;4.00;1.80;;;;;;;;;;5130429;27;20449;-63
2023/09/19 10:42:50;;;;;;;5.50;2.30;;;;;;;;;;5130367;27;20443;-63
2023/09/19 10:45:20;;;;;;;6.73;2.13;;;;;;;;;;5130062;28;20966;-63
2023/09/19 10:47:47;;;;;;;5.47;2.03;;;;;;;;;;5129942;28;20448;-65
2023/09/19 10:50:21;;;;;;;2.97;2.07;;;;;;;;;;5129878;28;20483;-60
2023/09/19 10:52:50;;;;;;;6.23;1.93;;;;;;;;;;5128358;28;20447;-60
2023/09/19 10:55:19;;;;;;;2.77;1.70;;;;;;;;;;5126954;28;20486;-60
2023/09/19 10:57:48;;;;;;;3.73;1.83;;;;;;;;;;5127829;28;20524;-60
2023/09/19 11:00:27;;;;;;;4.37;2.47;;;;;;;;;;5127875;28;20477;-60
2023/09/19 11:03:09;;;;;;;3.03;1.93;;;;;;;;;;5116325;28;20517;-60
2023/09/19 11:05:37;;;;;;;5.23;2.27;;;;;;;;;;5097520;28;20448;-60
2023/09/19 11:08:05;;;;;;;4.00;2.23;;;;;;;;;;5115383;28;20533;-60
2023/09/19 11:10:47;;;;;;;1.73;1.63;;;;;;;;;;5116060;28;20465;-60
2023/09/19 11:13:30;;;;;;;5.00;2.50;;;;;;;;;;5116269;28;20528;-60
2023/09/19 11:16:15;;;;;;;4.93;2.53;;;;;;;;;;5115956;28;20939;-60
2023/09/19 11:18:57;;;;;;;4.13;2.23;;;;;;;;;;5115966;28;20440;-60
2023/09/19 11:21:41;;;;;;;2.20;1.60;;;;;;;;;;5115819;28;20804;-60
2023/09/19 11:24:30;;;;;;;2.80;2.03;;;;;;;;;;5115991;28;20944;-60
2023/09/19 11:27:12;;;;;;;3.23;2.40;;;;;;;;;;5115846;28;20540;-60
2023/09/19 11:29:40;;;;;;;2.83;2.07;;;;;;;;;;5115627;28;20465;-60
2023/09/19 11:32:09;;;;;;;2.60;2.20;;;;;;;;;;5115777;28;20572;-60
2023/09/19 11:34:41;;;;;;;4.23;2.07;;;;;;;;;;5115675;28;20446;-60
2023/09/19 11:37:27;;;;;;;3.13;1.93;;;;;;;;;;5115527;28;20441;-60
2023/09/19 11:40:15;;;;;;;2.60;2.13;;;;;;;;;;5115552;27;20535;-60
2023/09/19 11:42:43;;;;;;;5.13;2.60;;;;;;;;;;5115740;28;20477;-60
2023/09/19 11:45:31;;;;;;;5.70;2.33;;;;;;;;;;5115596;28;20959;-60
2023/09/19 11:48:00;;;;;;;6.30;2.00;;;;;;;;;;5115358;28;20540;-60
2023/09/19 11:50:28;;;;;;;5.43;1.90;;;;;;;;;;5114950;28;20481;-60
2023/09/19 11:52:55;;;;;;;2.40;2.20;;;;;;;;;;5115243;28;20442;-60
2023/09/19 11:55:22;;;;;;;3.20;1.50;;;;;;;;;;5115402;28;20541;-60
2023/09/19 11:57:50;;;;;;;5.00;2.33;;;;;;;;;;5115235;28;20446;-60
2023/09/19 12:00:19;;;;;;;6.60;2.77;;;;;;;;;;5115161;28;20523;-60
2023/09/19 12:02:48;;;;;;;3.40;1.70;;;;;;;;;;5115097;28;20441;-61
2023/09/19 12:05:16;;;;;;;2.63;2.13;;;;;;;;;;5115147;28;20452;-60
2023/09/19 12:07:45;;;;;;;3.60;1.77;;;;;;;;;;5114933;28;20928;-60
2023/09/19 12:10:15;;;;;;;3.67;1.93;;;;;;;;;;5115042;28;20442;-60
2023/09/19 12:12:48;;;;;;;3.40;2.00;;;;;;;;;;5114697;28;20452;-60
2023/09/19 12:15:15;;;;;;;9.57;1.97;;;;;;;;;;5114189;28;20454;-60
2023/09/19 12:17:44;;;;;;;2.30;2.10;;;;;;;;;;5114734;28;21032;-60
2023/09/19 12:20:12;;;;;;;4.13;1.70;;;;;;;;;;5114957;28;20438;-60
2023/09/19 12:22:44;;;;;;;4.33;2.07;;;;;;;;;;5114863;28;20507;-60
2023/09/19 12:25:11;;;;;;;3.93;1.57;;;;;;;;;;5114711;28;20821;-60
2023/09/19 12:27:44;;;;;;;3.93;1.97;;;;;;;;;;5114496;28;20442;-60
2023/09/19 12:30:14;;;;;;;2.90;1.90;;;;;;;;;;5114550;28;20441;-60
2023/09/19 12:32:41;;;;;;;2.47;1.40;;;;;;;;;;5114731;28;20473;-60
2023/09/19 12:35:10;;;;;;;2.90;1.70;;;;;;;;;;5114528;28;20444;-60
2023/09/19 12:37:38;;;;;;;1.60;1.30;;;;;;;;;;5114490;28;20446;-60
2023/09/19 12:40:17;;;;;;;7.03;1.80;;;;;;;;;;5114172;28;20533;-60
2023/09/19 12:42:44;;;;;;;1.60;1.50;;;;;;;;;;5114289;28;20842;-60
2023/09/19 12:45:13;;;;;;;3.20;2.10;;;;;;;;;;5114345;28;20800;-60
2023/09/19 12:47:43;;;;;;;3.97;1.53;;;;;;;;;;5114314;28;20866;-60
2023/09/19 12:50:18;;;;;;;2.23;1.30;;;;;;;;;;5113858;28;20568;-60
2023/09/19 12:52:47;;;;;;;2.13;1.50;;;;;;;;;;5114121;28;20448;-63
2023/09/19 12:55:25;;;;;;;4.30;1.77;;;;;;;;;;5114283;28;20800;-62
2023/09/19 12:58:03;;;;;;;5.23;1.33;;;;;;;;;;5114096;28;20445;-62
2023/09/19 13:00:35;;;;;;;4.87;2.23;;;;;;;;;;5114090;28;20447;-62
2023/09/19 13:03:15;;;;;;;2.77;1.90;;;;;;;;;;5114024;28;20453;-62
2023/09/19 13:05:49;;;;;;;2.93;1.90;;;;;;;;;;5114218;28;20477;-62
2023/09/19 13:08:20;;;;;;;4.63;1.77;;;;;;;;;;5113996;28;20487;-62
2023/09/19 13:11:09;;;;;;;3.30;1.70;;;;;;;;;;5113927;28;20526;-61
2023/09/19 13:13:37;;;;;;;2.30;1.83;;;;;;;;;;5113723;28;20462;-62
2023/09/19 13:16:08;;;;;;;3.50;2.00;;;;;;;;;;5113609;28;20993;-61
2023/09/19 13:18:44;;;;;;;2.03;1.83;;;;;;;;;;5113982;28;20438;-62
2023/09/19 13:21:14;;;;;;;2.03;1.40;;;;;;;;;;5113679;28;20880;-62
2023/09/19 13:23:42;;;;;;;2.57;1.80;;;;;;;;;;5113784;28;20441;-62
2023/09/19 13:26:10;;;;;;;4.40;1.90;;;;;;;;;;5113164;28;20472;-61
2023/09/19 13:28:40;;;;;;;3.57;1.60;;;;;;;;;;5113695;28;20495;-61
2023/09/19 13:31:07;;;;;;;1.67;1.10;;;;;;;;;;5113556;28;20488;-60
2023/09/19 13:33:35;;;;;;;1.57;1.30;;;;;;;;;;5113615;28;20525;-60
2023/09/19 13:36:02;;;;;;;3.20;1.67;;;;;;;;;;5113406;28;20941;-60
2023/09/19 13:38:29;;;;;;;6.43;2.03;;;;;;;;;;5113393;28;20530;-60
2023/09/19 13:40:56;;;;;;;3.00;1.50;;;;;;;;;;5113357;28;20509;-61
2023/09/19 13:43:24;;;;;;;3.10;1.20;;;;;;;;;;5113541;28;20463;-60
2023/09/19 13:45:52;;;;;;;3.20;1.60;;;;;;;;;;5113325;28;21082;-61
2023/09/19 13:48:21;;;;;;;3.73;1.27;;;;;;;;;;5113193;28;20434;-61
2023/09/19 13:50:48;;;;;;;3.37;1.30;;;;;;;;;;5113185;28;20888;-61
2023/09/19 13:53:16;;;;;;;2.80;1.53;;;;;;;;;;5113091;28;20940;-61
2023/09/19 13:55:43;;;;;;;2.00;1.20;;;;;;;;;;5113432;28;20441;-61
2023/09/19 13:58:11;;;;;;;4.47;2.20;;;;;;;;;;5112818;28;20542;-61
2023/09/19 14:00:39;;;;;;;3.70;1.40;;;;;;;;;;5112938;28;20872;-64
2023/09/19 14:03:06;;;;;;;3.93;2.10;;;;;;;;;;5113391;28;20448;-66
2023/09/19 14:05:33;;;;;;;3.47;1.70;;;;;;;;;;5113094;28;20862;-68
2023/09/19 14:08:03;;;;;;;2.33;1.60;;;;;;;;;;5113277;28;20481;-62
2023/09/19 14:10:31;;;;;;;1.50;1.40;;;;;;;;;;5113156;28;20442;-62
2023/09/19 14:12:59;;;;;;;3.77;1.80;;;;;;;;;;5112945;28;20976;-62
2023/09/19 14:15:29;;;;;;;1.30;1.20;;;;;;;;;;5113045;28;20448;-62
2023/09/19 14:17:58;;;;;;;5.33;1.60;;;;;;;;;;5113076;28;20441;-62
2023/09/19 14:20:26;;;;;;;1.93;1.57;;;;;;;;;;5113017;28;20446;-62
2023/09/19 14:22:53;;;;;;;2.60;1.50;;;;;;;;;;5113197;28;20476;-62
2023/09/19 14:25:20;;;;;;;3.67;1.50;;;;;;;;;;5113143;28;20624;-62
2023/09/19 14:27:48;;;;;;;2.37;1.57;;;;;;;;;;5113016;28;20873;-62
2023/09/19 14:30:15;;;;;;;2.60;1.63;;;;;;;;;;5113033;28;21039;-61
2023/09/19 14:32:42;;;;;;;3.67;1.63;;;;;;;;;;5113112;28;20482;-61
2023/09/19 14:35:13;;;;;;;5.00;1.83;;;;;;;;;;5112774;28;20544;-62
2023/09/19 14:37:40;;;;;;;3.67;1.70;;;;;;;;;;5115326;28;20494;-62
2023/09/19 14:40:09;;;;;;;6.87;1.47;;;;;;;;;;5116836;28;20445;-62
2023/09/19 14:42:38;;;;;;;1.80;1.50;;;;;;;;;;5116687;28;20449;-61
2023/09/19 14:45:05;;;;;;;4.20;1.77;;;;;;;;;;5116505;28;20437;-62
2023/09/19 14:47:33;;;;;;;4.20;1.50;;;;;;;;;;5116512;28;20445;-62
2023/09/19 14:50:00;;;;;;;2.30;1.40;;;;;;;;;;5116457;28;20565;-61
2023/09/19 14:52:29;;;;;;;2.23;1.87;;;;;;;;;;5116576;28;20481;-61
2023/09/19 14:54:56;;;;;;;1.77;1.30;;;;;;;;;;5116605;28;20777;-62
2023/09/19 14:57:24;;;;;;;1.73;1.20;;;;;;;;;;5116552;28;20438;-62
2023/09/19 14:59:51;;;;;;;2.40;1.40;;;;;;;;;;5116360;28;20442;-62
2023/09/19 15:02:19;;;;;;;5.00;2.17;;;;;;;;;;5116534;28;20446;-62